createdAt,value
2018-09-09T00:00:43.470Z,13.70
2018-09-09T00:03:11.889Z,13.70
2018-09-09T00:05:40.237Z,13.70
2018-09-09T00:08:08.482Z,13.70
2018-09-09T00:10:36.774Z,13.60
2018-09-09T00:13:05.105Z,13.60
2018-09-09T00:15:34.219Z,13.70
2018-09-09T00:18:02.523Z,13.70
2018-09-09T00:20:30.784Z,13.60
2018-09-09T00:22:59.074Z,13.70
2018-09-09T00:25:27.331Z,13.70
2018-09-09T00:27:55.637Z,13.50
2018-09-09T00:30:23.950Z,13.60
2018-09-09T00:32:52.242Z,13.60
2018-09-09T00:35:20.553Z,13.50
2018-09-09T00:37:48.823Z,13.60
2018-09-09T00:40:17.144Z,13.60
2018-09-09T00:42:45.399Z,13.50
2018-09-09T00:45:13.717Z,13.50
2018-09-09T00:47:41.965Z,13.60
2018-09-09T00:50:15.711Z,13.50
2018-09-09T00:52:49.452Z,13.60
2018-09-09T00:55:17.915Z,13.60
2018-09-09T00:57:46.276Z,13.60
2018-09-09T01:00:14.620Z,13.50
2018-09-09T01:02:42.994Z,13.50
2018-09-09T01:05:11.210Z,13.60
2018-09-09T01:07:39.531Z,13.60
2018-09-09T01:10:07.904Z,13.60
2018-09-09T01:12:36.341Z,13.60
2018-09-09T01:15:04.690Z,13.60
2018-09-09T01:17:33.108Z,13.50
2018-09-09T01:20:01.386Z,13.50
2018-09-09T01:22:29.681Z,13.50
2018-09-09T01:24:58.018Z,13.50
2018-09-09T01:27:26.383Z,13.40
2018-09-09T01:29:54.630Z,13.40
2018-09-09T01:32:22.902Z,13.40
2018-09-09T01:34:51.152Z,13.50
2018-09-09T01:37:19.474Z,13.50
2018-09-09T01:39:47.846Z,13.50
2018-09-09T01:42:16.134Z,13.40
2018-09-09T01:44:44.419Z,13.40
2018-09-09T01:47:13.041Z,13.40
2018-09-09T01:49:41.634Z,13.50
2018-09-09T01:52:10.087Z,13.50
2018-09-09T01:54:38.496Z,13.50
2018-09-09T01:57:06.986Z,13.50
2018-09-09T01:59:35.386Z,13.50
2018-09-09T02:02:03.712Z,13.50
2018-09-09T02:04:32.068Z,13.50
2018-09-09T02:07:00.639Z,13.40
2018-09-09T02:09:28.844Z,13.50
2018-09-09T02:11:57.268Z,13.50
2018-09-09T02:14:25.630Z,13.50
2018-09-09T02:16:54.071Z,13.40
2018-09-09T02:19:22.398Z,13.50
2018-09-09T02:21:50.931Z,13.40
2018-09-09T02:24:19.383Z,13.30
2018-09-09T02:26:47.623Z,13.20
2018-09-09T02:29:15.967Z,13.30
2018-09-09T02:31:44.281Z,13.20
2018-09-09T02:34:12.589Z,13.20
2018-09-09T02:36:40.822Z,13.20
2018-09-09T02:39:10.211Z,13.30
2018-09-09T02:41:39.272Z,13.30
2018-09-09T02:44:07.804Z,13.30
2018-09-09T02:46:36.248Z,13.40
2018-09-09T02:49:04.557Z,13.40
2018-09-09T02:51:32.825Z,13.30
2018-09-09T02:54:01.151Z,13.30
2018-09-09T02:56:29.517Z,13.30
2018-09-09T02:58:57.813Z,13.30
2018-09-09T03:01:26.093Z,13.30
2018-09-09T03:03:54.331Z,13.30
2018-09-09T03:06:22.664Z,13.10
2018-09-09T03:08:51.025Z,13.10
2018-09-09T03:11:19.333Z,13.10
2018-09-09T03:13:47.619Z,13.20
2018-09-09T03:16:15.912Z,13.10
2018-09-09T03:18:44.246Z,13.20
2018-09-09T03:21:12.538Z,13.20
2018-09-09T03:23:40.832Z,13.20
2018-09-09T03:26:09.163Z,13.10
2018-09-09T03:28:37.465Z,13.00
2018-09-09T03:31:05.738Z,13.00
2018-09-09T03:33:34.128Z,13.00
2018-09-09T03:36:02.503Z,13.00
2018-09-09T03:38:30.886Z,13.00
2018-09-09T03:40:59.232Z,12.90
2018-09-09T03:43:27.526Z,12.90
2018-09-09T03:46:58.567Z,13.00
2018-09-09T03:49:26.879Z,12.90
2018-09-09T03:51:55.223Z,12.90
2018-09-09T03:54:23.475Z,12.90
2018-09-09T03:56:51.804Z,12.90
2018-09-09T03:59:20.126Z,12.90
2018-09-09T04:01:48.530Z,12.80
2018-09-09T04:04:16.836Z,12.80
2018-09-09T04:06:45.199Z,12.80
2018-09-09T04:09:13.624Z,12.80
2018-09-09T04:11:42.024Z,12.80
2018-09-09T04:14:10.275Z,12.80
2018-09-09T04:16:38.596Z,13.00
2018-09-09T04:19:06.847Z,13.10
2018-09-09T04:22:05.723Z,13.00
2018-09-09T04:24:33.984Z,12.90
2018-09-09T04:27:02.249Z,12.80
2018-09-09T04:29:30.514Z,12.80
2018-09-09T04:31:58.854Z,12.70
2018-09-09T04:34:27.208Z,12.80
2018-09-09T04:36:55.456Z,12.80
2018-09-09T04:39:23.727Z,12.80
2018-09-09T04:41:52.056Z,12.70
2018-09-09T04:44:20.308Z,12.70
2018-09-09T04:46:48.590Z,12.70
2018-09-09T04:49:16.850Z,12.70
2018-09-09T04:51:45.186Z,12.70
2018-09-09T04:54:13.610Z,12.70
2018-09-09T04:56:41.882Z,12.60
2018-09-09T04:59:10.150Z,12.60
2018-09-09T05:01:38.448Z,12.50
2018-09-09T05:04:06.725Z,12.50
2018-09-09T05:06:36.149Z,12.70
2018-09-09T05:09:05.811Z,12.70
2018-09-09T05:11:34.137Z,12.70
2018-09-09T05:14:02.444Z,12.80
2018-09-09T05:16:30.711Z,12.80
2018-09-09T05:18:59.074Z,12.80
2018-09-09T05:21:27.388Z,12.70
2018-09-09T05:23:56.020Z,12.60
2018-09-09T05:26:24.499Z,12.60
2018-09-09T05:28:53.173Z,12.70
2018-09-09T05:31:21.813Z,12.60
2018-09-09T05:33:50.641Z,12.60
2018-09-09T05:36:19.087Z,12.60
2018-09-09T05:38:47.666Z,12.60
2018-09-09T05:41:16.260Z,12.60
2018-09-09T05:43:44.954Z,12.60
2018-09-09T05:46:13.211Z,12.60
2018-09-09T05:48:41.485Z,12.60
2018-09-09T05:51:09.966Z,12.70
2018-09-09T05:53:38.248Z,12.70
2018-09-09T05:56:06.616Z,12.80
2018-09-09T05:58:34.936Z,12.90
2018-09-09T06:01:03.219Z,12.90
2018-09-09T06:03:31.520Z,12.90
2018-09-09T06:05:59.881Z,12.80
2018-09-09T06:08:28.145Z,12.80
2018-09-09T06:10:56.464Z,12.80
2018-09-09T06:13:26.149Z,12.80
2018-09-09T06:15:54.449Z,12.90
2018-09-09T06:18:22.712Z,12.90
2018-09-09T06:20:51.070Z,12.80
2018-09-09T06:23:19.391Z,12.90
2018-09-09T06:25:47.706Z,13.00
2018-09-09T06:28:16.033Z,13.00
2018-09-09T06:30:44.351Z,13.00
2018-09-09T06:33:12.689Z,13.20
2018-09-09T06:35:41.580Z,13.30
2018-09-09T06:38:10.618Z,13.30
2018-09-09T06:40:39.303Z,13.50
2018-09-09T06:43:07.932Z,13.60
2018-09-09T06:45:36.323Z,13.60
2018-09-09T06:48:04.743Z,13.70
2018-09-09T06:50:32.998Z,13.80
2018-09-09T06:53:01.238Z,13.90
2018-09-09T06:55:29.721Z,14.00
2018-09-09T06:57:57.947Z,14.10
2018-09-09T07:00:26.309Z,14.20
2018-09-09T07:02:54.623Z,14.30
2018-09-09T07:05:22.897Z,14.40
2018-09-09T07:07:51.243Z,14.60
2018-09-09T07:10:19.522Z,14.90
2018-09-09T07:12:47.954Z,15.00
2018-09-09T07:15:16.240Z,15.10
2018-09-09T07:17:44.553Z,15.20
2018-09-09T07:20:12.908Z,15.30
2018-09-09T07:22:41.232Z,15.50
2018-09-09T07:25:09.583Z,15.70
2018-09-09T07:27:37.862Z,15.90
2018-09-09T07:30:06.190Z,16.00
2018-09-09T07:32:34.514Z,16.10
2018-09-09T07:35:02.835Z,16.20
2018-09-09T07:37:31.135Z,16.30
2018-09-09T07:39:59.544Z,16.50
2018-09-09T07:42:27.909Z,16.70
2018-09-09T07:44:56.208Z,16.80
2018-09-09T07:47:24.575Z,17.00
2018-09-09T07:49:52.854Z,17.20
2018-09-09T07:52:21.256Z,17.30
2018-09-09T07:54:49.470Z,17.40
2018-09-09T07:57:17.892Z,17.40
2018-09-09T07:59:46.308Z,17.40
2018-09-09T08:02:14.765Z,17.50
2018-09-09T08:04:46.582Z,17.50
2018-09-09T08:07:15.036Z,17.50
2018-09-09T08:09:43.363Z,17.50
2018-09-09T08:12:11.763Z,17.60
2018-09-09T08:14:39.942Z,17.70
2018-09-09T08:17:08.230Z,17.80
2018-09-09T08:19:36.485Z,18.00
2018-09-09T08:22:04.812Z,18.10
2018-09-09T08:24:35.156Z,18.20
2018-09-09T08:27:03.543Z,18.30
2018-09-09T08:29:31.824Z,18.30
2018-09-09T08:32:00.208Z,18.40
2018-09-09T08:34:28.497Z,18.50
2018-09-09T08:36:56.919Z,18.60
2018-09-09T08:39:25.283Z,18.70
2018-09-09T08:41:53.551Z,18.70
2018-09-09T08:44:21.865Z,18.80
2018-09-09T08:46:50.873Z,19.00
2018-09-09T08:49:19.325Z,19.10
2018-09-09T08:51:47.633Z,19.10
2018-09-09T08:54:15.857Z,19.20
2018-09-09T08:56:44.147Z,19.30
2018-09-09T08:59:12.450Z,19.50
2018-09-09T09:01:40.801Z,19.60
2018-09-09T09:04:09.155Z,19.70
2018-09-09T09:06:37.444Z,19.80
2018-09-09T09:09:07.738Z,19.90
2018-09-09T09:11:36.137Z,20.00
2018-09-09T09:14:04.431Z,20.10
2018-09-09T09:16:32.694Z,20.20
2018-09-09T09:19:01.085Z,20.20
2018-09-09T09:21:29.444Z,20.30
2018-09-09T09:23:57.764Z,20.40
2018-09-09T09:26:26.110Z,20.60
2018-09-09T09:28:54.536Z,20.60
2018-09-09T09:31:24.061Z,20.80
2018-09-09T09:33:52.519Z,20.90
2018-09-09T09:36:20.932Z,21.00
2018-09-09T09:38:49.485Z,21.20
2018-09-09T09:41:18.379Z,21.20
2018-09-09T09:43:46.919Z,21.30
2018-09-09T09:46:15.278Z,21.40
2018-09-09T09:48:43.672Z,21.40
2018-09-09T09:51:12.056Z,21.60
2018-09-09T09:53:44.357Z,21.70
2018-09-09T09:56:12.669Z,21.70
2018-09-09T09:58:40.987Z,21.70
2018-09-09T10:01:09.443Z,21.90
2018-09-09T10:03:37.819Z,22.00
2018-09-09T10:06:06.110Z,22.10
2018-09-09T10:08:34.460Z,22.20
2018-09-09T10:11:03.876Z,22.20
2018-09-09T10:13:32.197Z,22.30
2018-09-09T10:16:00.596Z,22.50
2018-09-09T10:18:28.932Z,22.60
2018-09-09T10:20:57.242Z,22.60
2018-09-09T10:23:25.575Z,22.80
2018-09-09T10:25:54.928Z,22.80
2018-09-09T10:28:23.253Z,23.00
2018-09-09T10:30:51.580Z,23.00
2018-09-09T10:33:19.999Z,23.00
2018-09-09T10:35:48.338Z,23.20
2018-09-09T10:38:16.720Z,23.30
2018-09-09T10:40:45.013Z,23.30
2018-09-09T10:43:13.352Z,23.40
2018-09-09T10:45:41.668Z,23.50
2018-09-09T10:48:10.003Z,23.50
2018-09-09T10:50:38.320Z,23.60
2018-09-09T10:53:07.266Z,23.70
2018-09-09T10:55:35.558Z,23.70
2018-09-09T10:58:03.835Z,23.80
2018-09-09T11:00:32.874Z,23.90
2018-09-09T11:03:01.803Z,24.00
2018-09-09T11:05:30.119Z,24.00
2018-09-09T11:07:58.453Z,23.90
2018-09-09T11:10:26.723Z,23.80
2018-09-09T11:13:01.951Z,23.90
2018-09-09T11:15:30.294Z,24.00
2018-09-09T11:17:58.707Z,24.00
2018-09-09T11:20:26.952Z,24.00
2018-09-09T11:22:55.274Z,24.00
2018-09-09T11:25:23.639Z,24.10
2018-09-09T11:27:51.889Z,24.30
2018-09-09T11:30:20.270Z,24.40
2018-09-09T11:32:48.597Z,24.40
2018-09-09T11:35:16.845Z,24.60
2018-09-09T11:37:45.127Z,24.70
2018-09-09T11:40:13.419Z,24.80
2018-09-09T11:42:41.854Z,24.80
2018-09-09T11:45:10.296Z,24.90
2018-09-09T11:47:38.554Z,24.90
2018-09-09T11:50:06.904Z,24.80
2018-09-09T11:52:35.181Z,24.90
2018-09-09T11:55:03.535Z,25.00
2018-09-09T11:57:31.854Z,25.00
2018-09-09T12:00:00.233Z,25.10
2018-09-09T12:02:28.533Z,25.20
2018-09-09T12:04:56.879Z,25.30
2018-09-09T12:07:25.223Z,25.30
2018-09-09T12:09:53.610Z,25.30
2018-09-09T12:12:21.869Z,25.30
2018-09-09T12:14:50.163Z,25.40
2018-09-09T12:17:18.500Z,25.40
2018-09-09T12:19:46.810Z,25.50
2018-09-09T12:22:17.102Z,25.50
2018-09-09T12:24:45.377Z,25.60
2018-09-09T12:27:13.621Z,25.70
2018-09-09T12:29:42.017Z,25.60
2018-09-09T12:32:11.380Z,25.70
2018-09-09T12:34:39.696Z,25.80
2018-09-09T12:37:07.971Z,25.80
2018-09-09T12:39:36.343Z,25.80
2018-09-09T12:42:04.634Z,25.80
2018-09-09T12:44:44.604Z,25.80
2018-09-09T12:47:18.290Z,25.90
2018-09-09T12:49:46.565Z,25.90
2018-09-09T12:52:14.924Z,26.00
2018-09-09T12:54:43.426Z,26.00
2018-09-09T12:57:11.834Z,26.00
2018-09-09T12:59:40.217Z,25.90
2018-09-09T13:02:08.523Z,26.00
2018-09-09T13:04:36.800Z,26.10
2018-09-09T13:07:05.186Z,26.20
2018-09-09T13:09:33.613Z,26.20
2018-09-09T13:12:01.934Z,26.20
2018-09-09T13:14:30.295Z,26.20
2018-09-09T13:16:58.711Z,26.20
2018-09-09T13:19:27.183Z,26.30
2018-09-09T13:21:55.572Z,26.30
2018-09-09T13:24:23.955Z,26.30
2018-09-09T13:26:52.284Z,26.40
2018-09-09T13:29:20.627Z,26.50
2018-09-09T13:31:49.010Z,26.50
2018-09-09T13:34:17.330Z,26.60
2018-09-09T13:36:45.719Z,26.70
2018-09-09T13:39:14.339Z,26.60
2018-09-09T13:41:43.169Z,26.80
2018-09-09T13:44:11.467Z,26.80
2018-09-09T13:46:39.778Z,27.00
2018-09-09T13:49:08.492Z,27.00
2018-09-09T13:51:36.740Z,27.00
2018-09-09T13:54:05.126Z,27.00
2018-09-09T13:56:33.557Z,27.00
2018-09-09T13:59:01.944Z,27.10
2018-09-09T14:01:30.215Z,27.20
2018-09-09T14:03:58.737Z,27.20
2018-09-09T14:06:27.274Z,27.20
2018-09-09T14:08:56.660Z,27.30
2018-09-09T14:11:25.072Z,27.30
2018-09-09T14:13:53.401Z,27.30
2018-09-09T14:16:21.698Z,27.40
2018-09-09T14:18:50.039Z,27.40
2018-09-09T14:21:18.360Z,27.40
2018-09-09T14:23:46.658Z,27.40
2018-09-09T14:26:14.935Z,27.40
2018-09-09T14:28:43.214Z,27.30
2018-09-09T14:31:11.495Z,27.30
2018-09-09T14:33:39.750Z,27.20
2018-09-09T14:36:08.057Z,27.20
2018-09-09T14:38:36.512Z,27.20
2018-09-09T14:41:04.809Z,27.30
2018-09-09T14:43:33.072Z,27.60
2018-09-09T14:46:01.612Z,28.00
2018-09-09T14:48:29.872Z,28.10
2018-09-09T14:50:58.170Z,28.10
2018-09-09T14:53:26.493Z,27.90
2018-09-09T14:55:54.668Z,27.70
2018-09-09T14:58:22.989Z,27.40
2018-09-09T15:00:51.347Z,27.30
2018-09-09T15:03:19.649Z,26.90
2018-09-09T15:05:47.980Z,26.70
2018-09-09T15:08:16.290Z,26.40
2018-09-09T15:10:44.551Z,26.00
2018-09-09T15:13:12.838Z,25.70
2018-09-09T15:15:41.078Z,25.30
2018-09-09T15:18:09.341Z,25.00
2018-09-09T15:20:37.643Z,24.70
2018-09-09T15:23:06.036Z,24.40
2018-09-09T15:25:34.359Z,24.20
2018-09-09T15:28:02.639Z,23.90
2018-09-09T15:30:30.935Z,23.60
2018-09-09T15:32:59.181Z,23.40
2018-09-09T15:35:27.518Z,23.30
2018-09-09T15:37:55.835Z,23.20
2018-09-09T15:40:24.119Z,23.10
2018-09-09T15:42:52.413Z,23.00
2018-09-09T15:45:20.826Z,22.90
2018-09-09T15:47:49.204Z,22.70
2018-09-09T15:50:17.484Z,22.50
2018-09-09T15:52:45.794Z,22.50
2018-09-09T15:55:14.134Z,22.40
2018-09-09T15:57:42.446Z,22.30
2018-09-09T16:00:10.714Z,22.10
2018-09-09T16:02:39.112Z,22.10
2018-09-09T16:05:08.067Z,21.90
2018-09-09T16:07:36.496Z,21.80
2018-09-09T16:10:04.925Z,21.60
2018-09-09T16:12:33.286Z,21.50
2018-09-09T16:15:01.559Z,21.30
2018-09-09T16:17:29.962Z,21.10
2018-09-09T16:19:58.360Z,21.00
2018-09-09T16:22:26.650Z,21.00
2018-09-09T16:24:55.512Z,20.90
2018-09-09T16:27:31.387Z,20.70
2018-09-09T16:29:59.807Z,20.60
2018-09-09T16:32:28.167Z,20.50
2018-09-09T16:34:56.461Z,20.50
2018-09-09T16:37:24.749Z,20.40
2018-09-09T16:39:53.119Z,20.40
2018-09-09T16:42:21.375Z,20.10
2018-09-09T16:44:49.635Z,20.10
2018-09-09T16:47:18.162Z,20.10
2018-09-09T16:49:46.511Z,19.90
2018-09-09T16:52:14.810Z,19.90
2018-09-09T16:54:43.105Z,19.80
2018-09-09T16:57:11.405Z,19.80
2018-09-09T16:59:39.828Z,19.80
2018-09-09T17:02:08.129Z,19.70
2018-09-09T17:04:36.422Z,19.60
2018-09-09T17:07:04.729Z,19.50
2018-09-09T17:09:33.179Z,19.50
2018-09-09T17:12:01.553Z,19.40
2018-09-09T17:14:30.820Z,19.40
2018-09-09T17:16:59.175Z,19.30
2018-09-09T17:19:27.460Z,19.30
2018-09-09T17:21:55.815Z,19.30
2018-09-09T17:24:24.015Z,19.30
2018-09-09T17:26:52.369Z,19.20
2018-09-09T17:29:20.705Z,19.10
2018-09-09T17:31:49.045Z,18.90
2018-09-09T17:34:17.319Z,18.90
2018-09-09T17:36:45.558Z,18.80
2018-09-09T17:39:13.955Z,18.80
2018-09-09T17:41:42.404Z,18.80
2018-09-09T17:44:10.565Z,18.80
2018-09-09T17:46:38.977Z,18.60
2018-09-09T17:49:07.478Z,18.60
2018-09-09T17:51:35.728Z,18.50
2018-09-09T17:54:04.049Z,18.40
2018-09-09T17:56:32.457Z,18.40
2018-09-09T17:59:00.768Z,18.30
2018-09-09T18:01:29.040Z,18.30
2018-09-09T18:03:57.328Z,18.20
2018-09-09T18:06:25.821Z,18.20
2018-09-09T18:08:54.061Z,18.20
2018-09-09T18:11:23.262Z,18.20
2018-09-09T18:13:51.514Z,18.10
2018-09-09T18:16:19.863Z,18.00
2018-09-09T18:18:48.435Z,17.90
2018-09-09T18:21:16.694Z,17.90
2018-09-09T18:23:45.002Z,17.90
2018-09-09T18:26:13.340Z,17.80
2018-09-09T18:28:41.627Z,17.70
2018-09-09T18:31:10.011Z,17.60
2018-09-09T18:33:38.345Z,17.60
2018-09-09T18:36:06.637Z,17.60
2018-09-09T18:38:34.930Z,17.60
2018-09-09T18:41:03.167Z,17.60
2018-09-09T18:43:31.585Z,17.40
2018-09-09T18:46:00.055Z,17.40
2018-09-09T18:48:28.329Z,17.30
2018-09-09T18:50:56.627Z,17.20
2018-09-09T18:53:24.936Z,17.20
2018-09-09T18:55:53.285Z,17.20
2018-09-09T18:58:21.627Z,17.10
2018-09-09T19:00:49.944Z,17.10
2018-09-09T19:03:18.408Z,17.10
2018-09-09T19:05:46.767Z,17.10
2018-09-09T19:08:15.142Z,17.10
2018-09-09T19:10:43.438Z,17.10
2018-09-09T19:13:12.331Z,17.10
2018-09-09T19:15:41.309Z,17.10
2018-09-09T19:18:10.184Z,17.00
2018-09-09T19:20:39.029Z,16.90
2018-09-09T19:23:08.183Z,16.90
2018-09-09T19:25:36.558Z,16.80
2018-09-09T19:28:05.562Z,16.80
2018-09-09T19:30:34.323Z,16.70
2018-09-09T19:33:03.378Z,16.70
2018-09-09T19:35:31.790Z,16.80
2018-09-09T19:38:00.726Z,16.70
2018-09-09T19:40:29.373Z,16.60
2018-09-09T19:42:58.472Z,16.60
2018-09-09T19:45:27.391Z,16.50
2018-09-09T19:47:55.681Z,16.50
2018-09-09T19:50:24.079Z,16.40
2018-09-09T19:52:52.427Z,16.30
2018-09-09T19:55:20.803Z,16.30
2018-09-09T19:57:49.151Z,16.40
2018-09-09T20:00:17.481Z,16.30
2018-09-09T20:02:45.840Z,16.30
2018-09-09T20:05:14.166Z,16.30
2018-09-09T20:07:42.480Z,16.30
2018-09-09T20:10:10.873Z,16.20
2018-09-09T20:12:39.087Z,16.30
2018-09-09T20:15:07.417Z,16.40
2018-09-09T20:17:36.135Z,16.40
2018-09-09T20:20:04.827Z,16.30
2018-09-09T20:22:33.061Z,16.30
2018-09-09T20:25:02.881Z,16.20
2018-09-09T20:27:31.631Z,16.20
2018-09-09T20:30:00.077Z,16.30
2018-09-09T20:32:29.517Z,16.20
2018-09-09T20:34:58.761Z,16.20
2018-09-09T20:37:28.148Z,16.10
2018-09-09T20:39:56.773Z,16.10
2018-09-09T20:42:25.561Z,16.10
2018-09-09T20:44:53.874Z,16.10
2018-09-09T20:47:22.163Z,16.00
2018-09-09T20:49:50.954Z,16.10
2018-09-09T20:52:19.786Z,16.00
2018-09-09T20:54:48.098Z,16.10
2018-09-09T20:57:16.810Z,16.00
2018-09-09T20:59:45.158Z,16.10
2018-09-09T21:02:13.437Z,16.10
2018-09-09T21:04:42.323Z,16.00
2018-09-09T21:07:10.645Z,16.00
2018-09-09T21:09:38.923Z,15.90
2018-09-09T21:12:07.195Z,16.00
2018-09-09T21:14:35.504Z,16.00
2018-09-09T21:17:03.840Z,16.00
2018-09-09T21:19:32.123Z,16.00
2018-09-09T21:22:00.461Z,16.00
2018-09-09T21:24:28.757Z,16.00
2018-09-09T21:26:56.984Z,15.90
2018-09-09T21:29:26.425Z,15.80
2018-09-09T21:31:54.730Z,15.90
2018-09-09T21:34:23.162Z,15.90
2018-09-09T21:36:51.458Z,15.80
2018-09-09T21:39:19.724Z,15.80
2018-09-09T21:41:48.009Z,15.80
2018-09-09T21:44:16.306Z,15.70
2018-09-09T21:46:44.710Z,15.80
2018-09-09T21:49:13.092Z,15.70
2018-09-09T21:51:41.332Z,15.60
2018-09-09T21:54:09.600Z,15.60
2018-09-09T21:56:37.906Z,15.50
2018-09-09T21:59:06.165Z,15.50
2018-09-09T22:01:39.676Z,15.40
2018-09-09T22:04:07.929Z,15.40
2018-09-09T22:06:36.215Z,15.30
2018-09-09T22:09:07.163Z,15.50
2018-09-09T22:11:35.463Z,15.50
2018-09-09T22:14:03.798Z,15.50
2018-09-09T22:16:32.130Z,15.50
2018-09-09T22:19:00.545Z,15.50
2018-09-09T22:21:28.838Z,15.50
2018-09-09T22:23:57.167Z,15.50
2018-09-09T22:26:25.493Z,15.40
2018-09-09T22:28:53.774Z,15.40
2018-09-09T22:31:22.251Z,15.30
2018-09-09T22:33:50.511Z,15.20
2018-09-09T22:36:18.812Z,15.30
2018-09-09T22:38:47.215Z,15.20
2018-09-09T22:41:15.527Z,15.10
2018-09-09T22:43:44.842Z,15.10
2018-09-09T22:46:13.066Z,15.10
2018-09-09T22:48:41.439Z,15.10
2018-09-09T22:51:09.809Z,15.10
2018-09-09T22:53:38.161Z,15.10
2018-09-09T22:56:06.432Z,15.10
2018-09-09T22:58:34.713Z,15.00
2018-09-09T23:01:02.983Z,15.00
2018-09-09T23:03:31.363Z,15.00
2018-09-09T23:05:59.801Z,15.00
2018-09-09T23:08:28.082Z,15.00
2018-09-09T23:10:56.445Z,15.00
2018-09-09T23:13:24.733Z,14.90
2018-09-09T23:15:53.060Z,15.00
2018-09-09T23:18:21.493Z,14.90
2018-09-09T23:20:49.734Z,14.90
2018-09-09T23:23:17.971Z,14.90
2018-09-09T23:25:46.337Z,14.90
2018-09-09T23:28:14.590Z,14.90
2018-09-09T23:30:43.521Z,14.90
2018-09-09T23:33:11.791Z,15.00
2018-09-09T23:35:40.098Z,15.00
2018-09-09T23:38:14.116Z,15.10
2018-09-09T23:40:42.437Z,15.10
2018-09-09T23:43:10.744Z,15.00
2018-09-09T23:45:39.031Z,14.90
2018-09-09T23:48:07.481Z,15.00
2018-09-09T23:50:35.752Z,15.00
2018-09-09T23:53:04.089Z,15.10
2018-09-09T23:55:32.513Z,15.00
2018-09-09T23:58:01.028Z,15.00
